createdAt,value
2022-12-29T00:00:20.529Z,7.88
2022-12-29T00:02:47.610Z,7.89
2022-12-29T00:05:14.538Z,7.86
2022-12-29T00:07:41.509Z,7.84
2022-12-29T00:10:08.830Z,7.80
2022-12-29T00:12:55.870Z,7.81
2022-12-29T00:15:40.966Z,7.79
2022-12-29T00:18:08.591Z,7.83
2022-12-29T00:20:56.059Z,7.83
2022-12-29T00:23:41.958Z,7.81
2022-12-29T00:26:45.629Z,7.77
2022-12-29T00:29:30.913Z,7.76
2022-12-29T00:32:16.350Z,7.80
2022-12-29T00:35:03.504Z,7.77
2022-12-29T00:37:49.147Z,7.82
2022-12-29T00:40:34.389Z,7.84
2022-12-29T00:43:19.913Z,7.86
2022-12-29T00:45:46.694Z,7.88
2022-12-29T00:48:13.783Z,7.82
2022-12-29T00:50:40.905Z,7.87
2022-12-29T00:53:07.673Z,7.92
2022-12-29T00:55:39.184Z,7.90
2022-12-29T00:58:06.216Z,7.93
2022-12-29T01:00:33.021Z,7.89
2022-12-29T01:02:59.932Z,7.92
2022-12-29T01:05:26.853Z,7.88
2022-12-29T01:07:53.621Z,7.93
2022-12-29T01:10:20.675Z,7.91
2022-12-29T01:12:48.576Z,7.87
2022-12-29T01:15:16.681Z,7.85
2022-12-29T01:17:43.870Z,7.79
2022-12-29T01:20:12.154Z,7.85
2022-12-29T01:22:40.012Z,7.86
2022-12-29T01:25:07.819Z,7.86
2022-12-29T01:27:34.685Z,7.86
2022-12-29T01:30:01.731Z,7.87
2022-12-29T01:32:28.705Z,7.86
2022-12-29T01:34:55.499Z,7.89
2022-12-29T01:37:22.337Z,7.89
2022-12-29T01:39:49.108Z,7.87
2022-12-29T01:42:23.401Z,7.85
2022-12-29T01:45:04.924Z,7.86
2022-12-29T01:47:39.449Z,7.88
2022-12-29T01:50:30.304Z,7.88
2022-12-29T01:53:29.475Z,7.89
2022-12-29T01:56:02.051Z,7.90
2022-12-29T01:58:35.410Z,7.87
2022-12-29T02:01:03.513Z,7.93
2022-12-29T02:03:33.800Z,7.90
2022-12-29T02:06:09.859Z,7.88
2022-12-29T02:08:37.229Z,7.85
2022-12-29T02:11:04.421Z,7.89
2022-12-29T02:13:31.637Z,7.87
2022-12-29T02:16:23.744Z,7.85
2022-12-29T02:19:02.627Z,7.85
2022-12-29T02:21:53.493Z,7.76
2022-12-29T02:24:50.972Z,7.82
2022-12-29T02:28:10.598Z,7.74
2022-12-29T02:31:04.517Z,7.69
2022-12-29T02:34:03.097Z,7.66
2022-12-29T02:36:46.806Z,7.58
2022-12-29T02:39:51.470Z,7.56
2022-12-29T02:42:30.800Z,7.51
2022-12-29T02:45:26.721Z,7.49
2022-12-29T02:48:05.078Z,7.48
2022-12-29T02:50:40.866Z,7.41
2022-12-29T02:53:18.559Z,7.29
2022-12-29T02:55:53.444Z,7.26
2022-12-29T02:58:23.558Z,7.15
2022-12-29T03:01:27.489Z,7.12
2022-12-29T03:04:29.429Z,7.03
2022-12-29T03:07:18.540Z,6.95
2022-12-29T03:10:08.862Z,6.87
2022-12-29T03:13:13.077Z,6.78
2022-12-29T03:16:06.680Z,6.76
2022-12-29T03:18:42.884Z,6.67
2022-12-29T03:21:50.135Z,6.57
2022-12-29T03:24:19.905Z,6.58
2022-12-29T03:26:49.134Z,6.57
2022-12-29T03:29:18.547Z,6.48
2022-12-29T03:31:46.913Z,6.49
2022-12-29T03:34:15.914Z,6.53
2022-12-29T03:37:02.613Z,6.52
2022-12-29T03:39:29.942Z,6.48
2022-12-29T03:42:04.500Z,6.41
2022-12-29T03:44:38.500Z,6.46
2022-12-29T03:47:06.630Z,6.38
2022-12-29T03:49:35.150Z,6.42
2022-12-29T03:52:02.095Z,6.36
2022-12-29T03:54:28.904Z,6.33
2022-12-29T03:56:55.715Z,6.28
2022-12-29T03:59:22.602Z,6.25
2022-12-29T04:01:49.540Z,6.20
2022-12-29T04:04:16.611Z,6.19
2022-12-29T04:06:44.556Z,6.07
2022-12-29T04:09:12.455Z,6.09
2022-12-29T04:11:39.235Z,6.12
2022-12-29T04:14:06.047Z,6.12
2022-12-29T04:16:36.962Z,6.15
2022-12-29T04:19:04.007Z,6.18
2022-12-29T04:21:31.016Z,6.17
2022-12-29T04:23:57.901Z,6.17
2022-12-29T04:26:24.713Z,6.24
2022-12-29T04:28:51.492Z,6.26
2022-12-29T04:31:18.298Z,6.27
2022-12-29T04:33:45.716Z,6.26
2022-12-29T04:36:12.503Z,6.23
2022-12-29T04:38:39.319Z,6.22
2022-12-29T04:41:06.568Z,6.19
2022-12-29T04:43:33.352Z,6.19
2022-12-29T04:46:01.034Z,6.16
2022-12-29T04:48:27.865Z,6.17
2022-12-29T04:50:54.819Z,6.05
2022-12-29T04:53:21.767Z,6.02
2022-12-29T04:55:52.842Z,6.07
2022-12-29T04:58:23.576Z,6.07
2022-12-29T05:00:52.474Z,6.04
2022-12-29T05:03:19.727Z,6.02
2022-12-29T05:05:46.963Z,5.95
2022-12-29T05:08:13.814Z,5.98
2022-12-29T05:10:41.059Z,5.95
2022-12-29T05:13:08.154Z,5.93
2022-12-29T05:15:34.935Z,5.92
2022-12-29T05:18:01.910Z,5.90
2022-12-29T05:20:28.726Z,5.93
2022-12-29T05:22:55.517Z,5.93
2022-12-29T05:25:22.354Z,5.97
2022-12-29T05:27:49.141Z,5.96
2022-12-29T05:30:15.985Z,5.94
2022-12-29T05:32:43.086Z,5.93
2022-12-29T05:35:09.990Z,5.89
2022-12-29T05:37:36.809Z,5.87
2022-12-29T05:40:04.894Z,5.88
2022-12-29T05:42:31.689Z,5.85
2022-12-29T05:44:58.458Z,5.86
2022-12-29T05:47:25.337Z,5.78
2022-12-29T05:49:52.800Z,5.87
2022-12-29T05:52:19.690Z,5.89
2022-12-29T05:54:46.712Z,5.80
2022-12-29T05:57:15.807Z,5.82
2022-12-29T05:59:42.617Z,5.81
2022-12-29T06:02:11.085Z,5.80
2022-12-29T06:04:37.994Z,5.76
2022-12-29T06:07:04.785Z,5.77
2022-12-29T06:09:31.695Z,5.73
2022-12-29T06:11:58.489Z,5.74
2022-12-29T06:14:25.254Z,5.70
2022-12-29T06:16:52.083Z,5.75
2022-12-29T06:19:18.944Z,5.69
2022-12-29T06:21:46.045Z,5.74
2022-12-29T06:24:12.874Z,5.71
2022-12-29T06:26:41.234Z,5.65
2022-12-29T06:29:09.541Z,5.69
2022-12-29T06:31:36.537Z,5.69
2022-12-29T06:34:08.256Z,5.62
2022-12-29T06:36:35.969Z,5.64
2022-12-29T06:39:02.753Z,5.66
2022-12-29T06:41:32.356Z,5.66
2022-12-29T06:43:59.513Z,5.72
2022-12-29T06:46:26.575Z,5.75
2022-12-29T06:48:53.554Z,5.82
2022-12-29T06:51:20.378Z,5.82
2022-12-29T06:53:47.144Z,5.88
2022-12-29T06:56:13.990Z,5.93
2022-12-29T06:58:40.784Z,5.97
2022-12-29T07:01:07.880Z,6.02
2022-12-29T07:03:34.720Z,6.05
2022-12-29T07:06:01.547Z,6.10
2022-12-29T07:08:28.661Z,6.12
2022-12-29T07:10:55.497Z,6.08
2022-12-29T07:13:22.281Z,6.06
2022-12-29T07:15:49.113Z,6.05
2022-12-29T07:18:15.922Z,6.07
2022-12-29T07:20:44.452Z,6.02
2022-12-29T07:23:11.286Z,6.06
2022-12-29T07:25:38.056Z,6.05
2022-12-29T07:28:05.285Z,6.04
2022-12-29T07:30:32.121Z,6.05
2022-12-29T07:32:59.025Z,6.09
2022-12-29T07:35:25.876Z,6.09
2022-12-29T07:37:52.701Z,6.15
2022-12-29T07:40:19.559Z,6.11
2022-12-29T07:42:46.809Z,6.14
2022-12-29T07:45:13.677Z,6.18
2022-12-29T07:47:40.459Z,6.15
2022-12-29T07:50:07.721Z,6.14
2022-12-29T07:52:34.624Z,6.15
2022-12-29T07:55:01.417Z,6.16
2022-12-29T07:57:32.150Z,6.22
2022-12-29T07:59:59.757Z,6.21
2022-12-29T08:02:27.977Z,6.33
2022-12-29T08:04:55.122Z,6.33
2022-12-29T08:07:22.296Z,6.39
2022-12-29T08:09:49.100Z,6.39
2022-12-29T08:12:16.495Z,6.38
2022-12-29T08:14:43.311Z,6.38
2022-12-29T08:17:11.141Z,6.33
2022-12-29T08:19:39.050Z,6.32
2022-12-29T08:22:05.963Z,6.24
2022-12-29T08:24:32.773Z,6.22
2022-12-29T08:27:04.551Z,6.22
2022-12-29T08:29:36.014Z,6.21
2022-12-29T08:32:02.797Z,6.16
2022-12-29T08:34:31.402Z,6.12
2022-12-29T08:36:58.588Z,6.07
2022-12-29T08:39:25.424Z,5.99
2022-12-29T08:41:52.350Z,5.98
2022-12-29T08:44:19.177Z,5.92
2022-12-29T08:46:46.033Z,5.88
2022-12-29T08:49:13.181Z,5.86
2022-12-29T08:51:40.127Z,5.77
2022-12-29T08:54:06.967Z,5.76
2022-12-29T08:56:33.990Z,5.74
2022-12-29T08:59:00.968Z,5.73
2022-12-29T09:01:27.983Z,5.66
2022-12-29T09:06:43.388Z,5.64
2022-12-29T09:09:10.331Z,5.62
2022-12-29T09:11:37.375Z,5.60
2022-12-29T09:14:05.069Z,5.58
2022-12-29T09:16:32.548Z,5.59
2022-12-29T09:18:59.437Z,5.64
2022-12-29T09:21:26.883Z,5.65
2022-12-29T09:23:53.760Z,5.69
2022-12-29T09:26:20.562Z,5.73
2022-12-29T09:28:48.283Z,5.75
2022-12-29T09:31:15.663Z,5.81
2022-12-29T09:33:42.540Z,5.82
2022-12-29T09:36:09.996Z,5.84
2022-12-29T09:38:36.867Z,5.82
2022-12-29T09:41:19.796Z,5.85
2022-12-29T09:44:05.987Z,5.91
2022-12-29T09:46:42.529Z,5.90
2022-12-29T09:49:47.148Z,5.93
2022-12-29T09:52:30.796Z,5.97
2022-12-29T09:55:14.035Z,6.08
2022-12-29T09:57:58.908Z,6.17
2022-12-29T10:00:40.227Z,6.24
2022-12-29T10:03:20.810Z,6.33
2022-12-29T10:06:38.266Z,6.41
2022-12-29T10:09:49.503Z,6.44
2022-12-29T10:12:49.418Z,6.54
2022-12-29T10:15:46.483Z,6.57
2022-12-29T10:18:33.926Z,6.66
2022-12-29T10:21:25.853Z,6.67
2022-12-29T10:23:54.308Z,6.66
2022-12-29T10:26:46.297Z,6.74
2022-12-29T10:29:21.604Z,6.72
2022-12-29T10:32:01.521Z,6.70
2022-12-29T10:34:53.913Z,6.70
2022-12-29T10:37:50.057Z,6.71
2022-12-29T10:40:47.520Z,6.67
2022-12-29T10:43:45.565Z,6.72
2022-12-29T10:46:19.243Z,6.81
2022-12-29T10:48:47.834Z,6.83
2022-12-29T10:51:39.984Z,6.85
2022-12-29T10:54:34.264Z,6.81
2022-12-29T10:57:09.059Z,6.82
2022-12-29T10:59:38.723Z,6.88
2022-12-29T11:02:11.625Z,6.77
2022-12-29T11:04:47.163Z,6.79
2022-12-29T11:07:22.175Z,6.81
2022-12-29T11:09:52.048Z,6.78
2022-12-29T11:12:27.947Z,6.88
2022-12-29T11:15:16.013Z,6.96
2022-12-29T11:17:51.311Z,7.00
2022-12-29T11:20:39.778Z,6.98
2022-12-29T11:23:34.637Z,7.04
2022-12-29T11:26:15.712Z,7.05
2022-12-29T11:28:49.393Z,7.03
2022-12-29T11:31:23.165Z,7.05
2022-12-29T11:33:50.391Z,7.02
2022-12-29T11:36:25.955Z,7.00
2022-12-29T11:38:55.939Z,6.97
2022-12-29T11:41:30.077Z,6.98
2022-12-29T11:44:04.218Z,6.91
2022-12-29T11:46:36.112Z,6.90
2022-12-29T11:49:05.262Z,6.91
2022-12-29T11:51:49.324Z,6.92
2022-12-29T11:54:38.805Z,6.91
2022-12-29T11:57:17.255Z,6.97
2022-12-29T11:59:56.546Z,7.01
2022-12-29T12:02:28.896Z,6.93
2022-12-29T12:05:10.091Z,6.93
2022-12-29T12:07:47.889Z,6.99
2022-12-29T12:10:29.325Z,7.01
2022-12-29T12:13:06.214Z,7.09
2022-12-29T12:16:01.003Z,7.15
2022-12-29T12:19:28.626Z,7.13
2022-12-29T12:22:05.446Z,7.13
2022-12-29T12:24:35.199Z,7.21
2022-12-29T12:27:15.355Z,7.23
2022-12-29T12:30:24.604Z,7.28
2022-12-29T12:33:02.349Z,7.17
2022-12-29T12:36:25.446Z,7.30
2022-12-29T12:39:13.310Z,7.30
2022-12-29T12:41:58.017Z,7.31
2022-12-29T12:44:24.816Z,7.28
2022-12-29T12:47:32.529Z,7.32
2022-12-29T12:50:50.208Z,7.25
2022-12-29T12:53:56.135Z,7.29
2022-12-29T12:56:45.545Z,7.26
2022-12-29T12:59:50.682Z,7.41
2022-12-29T13:02:39.061Z,7.44
2022-12-29T13:05:39.956Z,7.34
2022-12-29T13:08:33.145Z,7.34
2022-12-29T13:11:29.851Z,7.32
2022-12-29T13:14:26.725Z,7.37
2022-12-29T13:17:13.551Z,7.37
2022-12-29T13:20:21.654Z,7.33
2022-12-29T13:23:37.601Z,7.42
2022-12-29T13:26:23.042Z,7.44
2022-12-29T13:29:13.225Z,7.42
2022-12-29T13:32:12.139Z,7.44
2022-12-29T13:35:23.294Z,7.43
2022-12-29T13:38:12.465Z,7.40
2022-12-29T13:40:46.745Z,7.43
2022-12-29T13:43:15.562Z,7.44
2022-12-29T13:45:45.151Z,7.49
2022-12-29T13:48:26.289Z,7.46
2022-12-29T13:50:58.674Z,7.46
2022-12-29T13:53:36.652Z,7.47
2022-12-29T13:56:21.752Z,7.48
2022-12-29T13:59:06.144Z,7.52
2022-12-29T14:01:55.976Z,7.46
2022-12-29T14:04:27.317Z,7.48
2022-12-29T14:07:05.681Z,7.38
2022-12-29T14:09:47.596Z,7.39
2022-12-29T14:12:34.665Z,7.31
2022-12-29T14:15:22.412Z,7.28
2022-12-29T14:18:26.866Z,7.31
2022-12-29T14:21:20.134Z,7.28
2022-12-29T14:23:50.545Z,7.27
2022-12-29T14:26:32.970Z,7.29
2022-12-29T14:29:40.600Z,7.25
2022-12-29T14:32:22.574Z,7.21
2022-12-29T14:34:52.437Z,7.25
2022-12-29T14:37:31.140Z,7.15
2022-12-29T14:40:27.490Z,7.12
2022-12-29T14:42:58.713Z,7.08
2022-12-29T14:45:31.750Z,7.01
2022-12-29T14:47:59.193Z,7.09
2022-12-29T14:50:40.970Z,7.07
2022-12-29T14:53:47.747Z,7.12
2022-12-29T14:56:19.327Z,7.12
2022-12-29T14:58:53.238Z,7.17
2022-12-29T15:01:28.052Z,7.17
2022-12-29T15:03:58.967Z,7.13
2022-12-29T15:06:30.811Z,7.12
2022-12-29T15:09:07.954Z,7.10
2022-12-29T15:11:37.806Z,6.99
2022-12-29T15:14:04.911Z,6.98
2022-12-29T15:16:36.977Z,6.95
2022-12-29T15:19:06.273Z,6.87
2022-12-29T15:21:37.781Z,6.78
2022-12-29T15:24:05.662Z,6.74
2022-12-29T15:26:42.292Z,6.66
2022-12-29T15:29:38.355Z,6.57
2022-12-29T15:32:23.524Z,6.55
2022-12-29T15:34:52.851Z,6.58
2022-12-29T15:37:26.791Z,6.55
2022-12-29T15:39:56.126Z,6.56
2022-12-29T15:42:51.193Z,6.60
2022-12-29T15:45:18.133Z,6.59
2022-12-29T15:47:49.962Z,6.67
2022-12-29T15:50:28.866Z,6.63
2022-12-29T15:52:57.040Z,6.65
2022-12-29T15:55:35.806Z,6.68
2022-12-29T15:58:20.063Z,6.62
2022-12-29T16:00:51.621Z,6.51
2022-12-29T16:03:18.873Z,6.52
2022-12-29T16:05:57.194Z,6.38
2022-12-29T16:08:34.352Z,6.36
2022-12-29T16:11:09.226Z,6.31
2022-12-29T16:13:41.398Z,6.21
2022-12-29T16:16:21.081Z,6.22
2022-12-29T16:18:52.006Z,6.14
2022-12-29T16:21:35.497Z,6.10
2022-12-29T16:24:09.557Z,6.03
2022-12-29T16:26:37.408Z,5.99
2022-12-29T16:29:08.008Z,5.95
2022-12-29T16:31:36.303Z,5.85
2022-12-29T16:34:33.158Z,5.80
2022-12-29T16:37:04.092Z,5.74
2022-12-29T16:39:36.212Z,5.68
2022-12-29T16:42:37.916Z,5.59
2022-12-29T16:45:20.124Z,5.60
2022-12-29T16:47:50.804Z,5.55
2022-12-29T16:50:28.230Z,5.51
2022-12-29T16:52:55.390Z,5.41
2022-12-29T16:55:22.599Z,5.43
2022-12-29T16:57:54.618Z,5.36
2022-12-29T17:00:31.713Z,5.35
2022-12-29T17:03:01.430Z,5.26
2022-12-29T17:05:28.532Z,5.20
2022-12-29T17:07:56.121Z,5.19
2022-12-29T17:10:42.909Z,5.12
2022-12-29T17:13:09.898Z,5.10
2022-12-29T17:15:36.959Z,5.06
2022-12-29T17:18:06.379Z,5.00
2022-12-29T17:20:36.993Z,4.99
2022-12-29T17:23:19.951Z,4.96
2022-12-29T17:25:51.824Z,4.95
2022-12-29T17:28:26.252Z,4.90
2022-12-29T17:30:55.464Z,4.87
2022-12-29T17:33:22.569Z,4.81
2022-12-29T17:35:54.871Z,4.80
2022-12-29T17:38:29.071Z,4.77
2022-12-29T17:40:56.283Z,4.69
2022-12-29T17:43:23.713Z,4.67
2022-12-29T17:45:58.116Z,4.67
2022-12-29T17:48:28.997Z,4.63
2022-12-29T17:50:58.322Z,4.62
2022-12-29T17:53:28.723Z,4.58
2022-12-29T17:55:55.755Z,4.56
2022-12-29T17:58:33.247Z,4.54
2022-12-29T18:01:02.723Z,4.56
2022-12-29T18:03:34.002Z,4.56
2022-12-29T18:06:02.441Z,4.54
2022-12-29T18:08:29.605Z,4.56
2022-12-29T18:10:57.108Z,4.52
2022-12-29T18:13:35.790Z,4.54
2022-12-29T18:16:11.767Z,4.51
2022-12-29T18:18:38.584Z,4.48
2022-12-29T18:21:05.988Z,4.52
2022-12-29T18:23:37.073Z,4.48
2022-12-29T18:26:23.916Z,4.42
2022-12-29T18:28:54.196Z,4.43
2022-12-29T18:31:21.129Z,4.41
2022-12-29T18:33:50.301Z,4.35
2022-12-29T18:36:18.879Z,4.36
2022-12-29T18:38:46.083Z,4.38
2022-12-29T18:41:20.319Z,4.28
2022-12-29T18:43:47.637Z,4.30
2022-12-29T18:46:20.505Z,4.32
2022-12-29T18:48:49.420Z,4.28
2022-12-29T18:51:21.841Z,4.25
2022-12-29T18:53:49.547Z,4.24
2022-12-29T18:56:16.391Z,4.23
2022-12-29T18:58:43.547Z,4.18
2022-12-29T19:01:24.071Z,4.16
2022-12-29T19:03:52.071Z,4.13
2022-12-29T19:06:21.121Z,4.11
2022-12-29T19:08:47.991Z,4.07
2022-12-29T19:11:15.031Z,4.06
2022-12-29T19:13:41.902Z,4.02
2022-12-29T19:16:19.418Z,3.98
2022-12-29T19:18:53.306Z,3.96
2022-12-29T19:21:30.787Z,3.93
2022-12-29T19:23:57.573Z,3.88
2022-12-29T19:26:36.158Z,3.86
2022-12-29T19:29:04.411Z,3.82
2022-12-29T19:31:31.718Z,3.79
2022-12-29T19:33:58.620Z,3.75
2022-12-29T19:36:25.399Z,3.71
2022-12-29T19:38:52.427Z,3.71
2022-12-29T19:41:19.298Z,3.69
2022-12-29T19:43:46.327Z,3.71
2022-12-29T19:46:19.866Z,3.71
2022-12-29T19:48:46.770Z,3.69
2022-12-29T19:51:17.524Z,3.73
2022-12-29T19:53:46.113Z,3.73
2022-12-29T19:56:14.511Z,3.77
2022-12-29T19:58:46.968Z,3.74
2022-12-29T20:01:23.246Z,3.74
2022-12-29T20:03:51.316Z,3.77
2022-12-29T20:06:19.207Z,3.77
2022-12-29T20:08:46.149Z,3.78
2022-12-29T20:11:16.694Z,3.79
2022-12-29T20:13:45.007Z,3.79
2022-12-29T20:16:18.693Z,3.77
2022-12-29T20:18:47.101Z,3.80
2022-12-29T20:21:19.743Z,3.80
2022-12-29T20:23:48.021Z,3.75
2022-12-29T20:26:19.265Z,3.76
2022-12-29T20:28:47.041Z,3.79
2022-12-29T20:31:23.678Z,3.79
2022-12-29T20:33:50.989Z,3.79
2022-12-29T20:36:24.462Z,3.80
2022-12-29T20:38:53.633Z,3.78
2022-12-29T20:41:21.386Z,3.76
2022-12-29T20:43:48.572Z,3.80
2022-12-29T20:46:20.411Z,3.78
2022-12-29T20:48:49.393Z,3.80
2022-12-29T20:51:16.668Z,3.82
2022-12-29T20:53:43.568Z,3.84
2022-12-29T20:56:19.483Z,3.89
2022-12-29T20:59:25.278Z,3.91
2022-12-29T21:01:34.503Z,3.93
2022-12-29T21:04:05.799Z,3.94
2022-12-29T21:06:33.880Z,3.94
2022-12-29T21:09:01.432Z,3.94
2022-12-29T21:11:28.497Z,3.96
2022-12-29T21:13:59.267Z,3.96
2022-12-29T21:16:28.116Z,3.96
2022-12-29T21:18:55.321Z,3.95
2022-12-29T21:21:25.928Z,3.95
2022-12-29T21:23:53.461Z,3.94
2022-12-29T21:26:23.821Z,3.90
2022-12-29T21:28:51.490Z,3.85
2022-12-29T21:31:31.558Z,3.86
2022-12-29T21:33:59.271Z,3.88
2022-12-29T21:36:27.611Z,3.86
2022-12-29T21:38:55.929Z,3.83
2022-12-29T21:41:23.157Z,3.82
2022-12-29T21:44:09.828Z,3.78
2022-12-29T21:46:39.832Z,3.80
2022-12-29T21:49:08.432Z,3.76
2022-12-29T21:51:51.377Z,3.77
2022-12-29T21:54:45.893Z,3.75
2022-12-29T21:57:34.666Z,3.71
2022-12-29T22:00:20.398Z,3.66
2022-12-29T22:03:05.926Z,3.65
2022-12-29T22:05:51.200Z,3.55
2022-12-29T22:08:36.944Z,3.61
2022-12-29T22:11:28.284Z,3.63
2022-12-29T22:13:56.432Z,3.64
2022-12-29T22:16:25.416Z,3.67
2022-12-29T22:18:52.540Z,3.69
2022-12-29T22:21:20.057Z,3.69
2022-12-29T22:23:46.899Z,3.69
2022-12-29T22:26:15.083Z,3.69
2022-12-29T22:28:46.419Z,3.67
2022-12-29T22:31:43.147Z,3.66
2022-12-29T22:34:11.261Z,3.63
2022-12-29T22:36:38.096Z,3.59
2022-12-29T22:39:04.908Z,3.56
2022-12-29T22:41:31.742Z,3.53
2022-12-29T22:43:58.914Z,3.49
2022-12-29T22:46:28.883Z,3.51
2022-12-29T22:48:57.822Z,3.49
2022-12-29T22:51:24.601Z,3.41
2022-12-29T22:53:52.088Z,3.41
2022-12-29T22:56:20.897Z,3.40
2022-12-29T22:58:48.624Z,3.42
2022-12-29T23:01:21.501Z,3.40
2022-12-29T23:03:48.845Z,3.41
2022-12-29T23:06:17.475Z,3.43
2022-12-29T23:08:45.244Z,3.41
2022-12-29T23:11:13.478Z,3.43
2022-12-29T23:13:41.237Z,3.42
2022-12-29T23:16:08.633Z,3.46
2022-12-29T23:18:35.680Z,3.48
2022-12-29T23:21:03.304Z,3.51
2022-12-29T23:23:49.760Z,3.59
2022-12-29T23:26:32.323Z,3.62
2022-12-29T23:29:00.834Z,3.67
2022-12-29T23:31:30.153Z,3.78
2022-12-29T23:33:58.297Z,3.88
2022-12-29T23:36:25.848Z,3.97
2022-12-29T23:38:52.826Z,4.01
2022-12-29T23:41:19.619Z,4.11
2022-12-29T23:43:48.042Z,4.20
2022-12-29T23:46:18.801Z,4.29
2022-12-29T23:48:46.096Z,4.35
2022-12-29T23:51:13.742Z,4.41
2022-12-29T23:53:43.342Z,4.45
2022-12-29T23:56:20.847Z,4.51
2022-12-29T23:58:48.443Z,4.56
